Aviation Digital Data Service (ADDS)

Output produced by METARs form (1526 UTC 17 October 2021)
found at http://aviationweather.gov/metar/data/
 
KBWI 171458Z 1715/1818 30017G25KT P6SM FEW080 
     FM171600 30020G30KT P6SM SCT060 BKN090 
     FM172200 29011G22KT P6SM BKN060 
     FM180000 28006KT P6SM FEW060 
     FM181400 29011G22KT P6SM SCT050
       
KSBY 171120Z 1712/1812 29009KT P6SM SKC 
     FM171500 30014G23KT P6SM SCT060 
     FM172200 30012G19KT P6SM SCT060 
     FM180100 29006KT P6SM SKC